Time;durP1;ratioP1;P1;durP2;ratioP2;P2;SDS_P1;SDS_P2;PMS_P1;PMS_P2;Temp;Humidity;BMP_temperature;BMP_pressure;BME280_temperature;BME280_humidity;BME280_pressure;Samples;Min_cycle;Max_cycle;Signal;HPM_P1;HPM_P2
2022/12/04 00:02:27;;;;;;;13.07;5.90;;;;;;;;;;10247216;28;20549;-82
2022/12/04 00:07:32;;;;;;;13.10;6.57;;;;;;;;;;10259533;28;20521;-84
2022/12/04 00:12:35;;;;;;;13.50;6.80;;;;;;;;;;10254686;28;20055;-83
2022/12/04 00:17:39;;;;;;;15.07;7.95;;;;;;;;;;10248388;28;20467;-84
2022/12/04 00:22:43;;;;;;;10.68;5.65;;;;;;;;;;10284755;28;20058;-82
2022/12/04 00:27:47;;;;;;;14.35;5.53;;;;;;;;;;10236362;28;20070;-82
2022/12/04 00:32:50;;;;;;;14.48;7.10;;;;;;;;;;10226292;28;20121;-83
2022/12/04 00:37:55;;;;;;;11.18;6.30;;;;;;;;;;10226840;28;20418;-82
2022/12/04 00:42:58;;;;;;;9.00;5.05;;;;;;;;;;10252345;28;20055;-82
2022/12/04 00:48:01;;;;;;;10.88;5.38;;;;;;;;;;10243905;28;20054;-82
2022/12/04 00:53:06;;;;;;;10.25;5.85;;;;;;;;;;10259960;28;20052;-82
2022/12/04 00:58:10;;;;;;;9.60;5.53;;;;;;;;;;10248554;28;20049;-84
2022/12/04 01:03:13;;;;;;;11.10;5.97;;;;;;;;;;10228735;28;20056;-83
2022/12/04 01:08:17;;;;;;;11.43;5.90;;;;;;;;;;10237156;28;20521;-82
2022/12/04 01:13:22;;;;;;;9.38;5.30;;;;;;;;;;10247476;28;20059;-82
2022/12/04 01:18:25;;;;;;;10.98;5.75;;;;;;;;;;10231709;28;20047;-82
2022/12/04 01:23:30;;;;;;;10.23;5.32;;;;;;;;;;10247280;28;20053;-82
2022/12/04 01:28:33;;;;;;;11.82;5.68;;;;;;;;;;10231720;28;20438;-83
2022/12/04 01:33:37;;;;;;;9.10;4.75;;;;;;;;;;10249161;28;20054;-84
2022/12/04 01:38:42;;;;;;;11.35;6.07;;;;;;;;;;10271579;28;20051;-83
2022/12/04 01:44:01;;;;;;;7.83;5.07;;;;;;;;;;10250441;28;20054;-83
2022/12/04 01:49:06;;;;;;;11.55;6.53;;;;;;;;;;10250143;28;20055;-82
2022/12/04 01:54:15;;;;;;;9.23;5.20;;;;;;;;;;10260109;28;20081;-84
2022/12/04 01:59:21;;;;;;;11.07;6.20;;;;;;;;;;10259344;28;20317;-83
2022/12/04 02:04:25;;;;;;;12.15;6.10;;;;;;;;;;10240890;28;20529;-84
2022/12/04 02:09:30;;;;;;;10.93;5.85;;;;;;;;;;10254925;28;20051;-84
2022/12/04 02:14:41;;;;;;;11.63;5.63;;;;;;;;;;10257207;28;20062;-82
2022/12/04 02:20:03;;;;;;;8.40;4.25;;;;;;;;;;10249895;28;20082;-84
2022/12/04 02:25:20;;;;;;;8.07;4.35;;;;;;;;;;10253063;28;20047;-84
2022/12/04 02:30:26;;;;;;;10.23;5.07;;;;;;;;;;10278030;28;20051;-84
2022/12/04 02:35:34;;;;;;;9.32;4.93;;;;;;;;;;10243295;28;20458;-83
2022/12/04 02:40:42;;;;;;;9.60;4.93;;;;;;;;;;10262441;28;20043;-84
2022/12/04 02:45:52;;;;;;;10.40;5.32;;;;;;;;;;10238106;28;20047;-84
2022/12/04 02:50:58;;;;;;;10.27;5.18;;;;;;;;;;10245041;28;20070;-84
2022/12/04 02:56:06;;;;;;;9.85;5.47;;;;;;;;;;10269951;28;20047;-83
2022/12/04 03:01:22;;;;;;;9.48;4.93;;;;;;;;;;10247491;28;20058;-84
2022/12/04 03:06:29;;;;;;;11.90;6.65;;;;;;;;;;10279068;28;20036;-82
2022/12/04 03:11:36;;;;;;;11.05;6.18;;;;;;;;;;10248633;28;20055;-84
2022/12/04 03:16:42;;;;;;;12.07;6.28;;;;;;;;;;10255438;28;20563;-84
2022/12/04 03:21:49;;;;;;;7.40;4.47;;;;;;;;;;10242433;28;20265;-84
2022/12/04 03:26:59;;;;;;;9.88;5.47;;;;;;;;;;10241715;28;20374;-84
2022/12/04 03:32:10;;;;;;;9.82;5.15;;;;;;;;;;10268597;28;20499;-84
2022/12/04 03:37:16;;;;;;;8.20;4.88;;;;;;;;;;10286579;28;20114;-84
2022/12/04 03:42:24;;;;;;;9.18;4.53;;;;;;;;;;10265049;28;20138;-84
2022/12/04 03:47:34;;;;;;;9.23;4.97;;;;;;;;;;10246089;28;20051;-83
2022/12/04 03:52:46;;;;;;;11.38;5.68;;;;;;;;;;10249047;28;20049;-83
2022/12/04 03:57:52;;;;;;;9.13;4.47;;;;;;;;;;10259510;28;20134;-84
2022/12/04 04:03:03;;;;;;;10.38;5.75;;;;;;;;;;10266950;28;20057;-84
2022/12/04 04:08:29;;;;;;;10.32;5.45;;;;;;;;;;10251346;28;20264;-84
2022/12/04 04:24:30;;;;;;;7.65;4.13;;;;;;;;;;10233466;28;20076;-84
2022/12/04 04:29:34;;;;;;;7.65;4.60;;;;;;;;;;10236745;28;20054;-84
2022/12/04 04:34:44;;;;;;;6.47;4.00;;;;;;;;;;10237991;28;20057;-83
2022/12/04 04:39:54;;;;;;;8.75;5.15;;;;;;;;;;10256414;28;20050;-82
2022/12/04 04:45:04;;;;;;;7.50;4.53;;;;;;;;;;10254916;28;20061;-82
2022/12/04 04:50:11;;;;;;;8.05;4.35;;;;;;;;;;10255578;28;20051;-82
2022/12/04 04:55:16;;;;;;;10.40;5.20;;;;;;;;;;10271709;28;20067;-82
2022/12/04 05:00:21;;;;;;;8.52;4.72;;;;;;;;;;10263295;28;20142;-84
2022/12/04 05:05:26;;;;;;;8.37;4.73;;;;;;;;;;10244637;28;20304;-83
2022/12/04 05:10:29;;;;;;;6.07;4.00;;;;;;;;;;10231978;28;20058;-84
2022/12/04 05:15:32;;;;;;;8.20;4.40;;;;;;;;;;10243318;28;20150;-83
2022/12/04 05:20:40;;;;;;;13.95;5.75;;;;;;;;;;10273122;28;20539;-83
2022/12/04 05:25:44;;;;;;;11.25;5.93;;;;;;;;;;10258174;28;20050;-83
2022/12/04 05:30:55;;;;;;;10.18;5.38;;;;;;;;;;10255103;28;20055;-83
2022/12/04 05:36:01;;;;;;;12.82;6.13;;;;;;;;;;10238510;28;20143;-83
2022/12/04 05:41:06;;;;;;;9.18;4.82;;;;;;;;;;10238292;28;20062;-82
2022/12/04 05:46:10;;;;;;;9.80;5.13;;;;;;;;;;10260759;28;20046;-83
2022/12/04 05:51:15;;;;;;;10.75;5.28;;;;;;;;;;10255805;28;20065;-82
2022/12/04 05:56:18;;;;;;;10.38;5.18;;;;;;;;;;10277524;28;20051;-83
2022/12/04 06:01:23;;;;;;;10.60;5.90;;;;;;;;;;10262001;28;20435;-84
2022/12/04 06:06:28;;;;;;;8.68;4.78;;;;;;;;;;10263016;28;20042;-83
2022/12/04 06:11:34;;;;;;;11.07;5.70;;;;;;;;;;10254301;28;20047;-84
2022/12/04 06:16:40;;;;;;;9.60;4.90;;;;;;;;;;10234348;28;20045;-83
2022/12/04 06:21:47;;;;;;;8.25;4.07;;;;;;;;;;10269653;28;20047;-83
2022/12/04 06:26:55;;;;;;;12.25;5.15;;;;;;;;;;10268448;28;20529;-83
2022/12/04 06:32:18;;;;;;;12.45;6.43;;;;;;;;;;10268656;28;20514;-82
2022/12/04 06:37:26;;;;;;;9.43;5.25;;;;;;;;;;10275851;28;20049;-83
2022/12/04 06:42:29;;;;;;;9.85;5.22;;;;;;;;;;10244676;28;20126;-84
2022/12/04 06:47:33;;;;;;;10.07;5.25;;;;;;;;;;10263967;28;20162;-84
2022/12/04 06:52:38;;;;;;;9.77;5.30;;;;;;;;;;10268152;28;20054;-83
2022/12/04 06:57:41;;;;;;;8.70;5.03;;;;;;;;;;10230544;28;20044;-84
2022/12/04 07:02:45;;;;;;;7.50;4.97;;;;;;;;;;10253480;28;20608;-82
2022/12/04 13:06:28;;;;;;;8.80;4.90;;;;;;;;;;10944160;23;20108;-83
2022/12/04 13:11:31;;;;;;;7.90;4.22;;;;;;;;;;10073804;29;20076;-83
2022/12/04 13:16:40;;;;;;;9.40;4.88;;;;;;;;;;10052813;29;20081;-83
2022/12/04 13:21:49;;;;;;;9.95;4.88;;;;;;;;;;10045876;29;20056;-83
2022/12/04 13:26:57;;;;;;;8.07;4.15;;;;;;;;;;10067070;29;20057;-82
2022/12/04 13:32:07;;;;;;;9.93;4.43;;;;;;;;;;10075583;29;20508;-81
2022/12/04 13:37:50;;;;;;;8.18;4.13;;;;;;;;;;10046557;29;20045;-82
2022/12/04 13:43:05;;;;;;;10.52;5.28;;;;;;;;;;10040204;29;20053;-81
2022/12/04 13:48:10;;;;;;;7.90;4.13;;;;;;;;;;10051574;29;20046;-82
2022/12/04 13:53:31;;;;;;;6.03;4.25;;;;;;;;;;10053825;29;20073;-81
2022/12/04 13:58:36;;;;;;;11.63;5.13;;;;;;;;;;10054691;29;20041;-82
2022/12/04 14:03:47;;;;;;;9.20;4.82;;;;;;;;;;10065372;29;20591;-81
2022/12/04 14:08:58;;;;;;;10.25;5.40;;;;;;;;;;10060532;29;20131;-82
2022/12/04 14:14:02;;;;;;;8.02;4.15;;;;;;;;;;10053119;29;20053;-82
2022/12/04 14:19:30;;;;;;;11.35;5.20;;;;;;;;;;10028569;29;20708;-82
2022/12/04 14:24:37;;;;;;;8.50;4.47;;;;;;;;;;10071181;29;20505;-82
2022/12/04 14:29:47;;;;;;;9.25;5.20;;;;;;;;;;10052291;29;20049;-82
2022/12/04 14:34:52;;;;;;;12.75;7.03;;;;;;;;;;10058172;29;20420;-82
2022/12/04 14:39:57;;;;;;;9.57;4.97;;;;;;;;;;10035441;29;20493;-82
2022/12/04 14:45:04;;;;;;;8.27;4.10;;;;;;;;;;10058659;29;20049;-82
2022/12/04 14:50:27;;;;;;;11.07;5.63;;;;;;;;;;10045086;29;20056;-83
2022/12/04 14:55:40;;;;;;;9.07;4.45;;;;;;;;;;10035713;29;20057;-82
2022/12/04 15:00:50;;;;;;;9.35;4.88;;;;;;;;;;10061248;29;20193;-82
2022/12/04 15:06:02;;;;;;;8.70;4.82;;;;;;;;;;10058838;29;20424;-82
2022/12/04 15:16:38;;;;;;;8.45;4.35;;;;;;;;;;10050422;29;20054;-81
2022/12/04 15:21:42;;;;;;;11.70;5.53;;;;;;;;;;10055548;29;20058;-82
2022/12/04 15:26:48;;;;;;;9.25;5.05;;;;;;;;;;10055593;29;20049;-82
2022/12/04 15:31:55;;;;;;;10.40;5.17;;;;;;;;;;10057272;29;20050;-81
2022/12/04 15:37:05;;;;;;;11.93;6.55;;;;;;;;;;10035683;29;20310;-81
2022/12/04 15:42:16;;;;;;;11.70;5.97;;;;;;;;;;10062624;29;20045;-84
2022/12/04 15:47:23;;;;;;;10.55;5.43;;;;;;;;;;10058276;29;20065;-81
2022/12/04 15:52:26;;;;;;;;;;;;;;;;;;10036758;29;20059;-82
2022/12/04 15:57:39;;;;;;;8.27;4.32;;;;;;;;;;10048924;29;19931;-82
2022/12/04 16:02:43;;;;;;;9.80;5.15;;;;;;;;;;10049107;29;20056;-82
2022/12/04 16:07:50;;;;;;;12.18;5.22;;;;;;;;;;10049115;29;20137;-83
2022/12/04 16:12:56;;;;;;;10.25;5.55;;;;;;;;;;10048086;29;20059;-82
2022/12/04 16:18:00;;;;;;;9.02;4.97;;;;;;;;;;10048782;29;20140;-81
2022/12/04 16:23:04;;;;;;;9.35;5.25;;;;;;;;;;10039262;29;20041;-82
2022/12/04 16:28:09;;;;;;;9.65;5.00;;;;;;;;;;10046530;29;20398;-82
2022/12/04 16:33:14;;;;;;;8.43;4.45;;;;;;;;;;10048393;29;20057;-82
2022/12/04 16:38:18;;;;;;;11.48;5.32;;;;;;;;;;10056344;29;20144;-81
2022/12/04 16:43:22;;;;;;;7.43;4.60;;;;;;;;;;10040476;29;20049;-82
2022/12/04 16:48:26;;;;;;;7.80;4.97;;;;;;;;;;10054831;29;20410;-83
2022/12/04 16:53:29;;;;;;;8.60;5.25;;;;;;;;;;10047320;29;20045;-83
2022/12/04 16:58:34;;;;;;;9.18;4.78;;;;;;;;;;10048177;29;20117;-83
2022/12/04 17:03:38;;;;;;;9.68;4.95;;;;;;;;;;10048086;29;20516;-82
2022/12/04 17:08:41;;;;;;;8.77;5.32;;;;;;;;;;10043417;29;20081;-82
2022/12/04 17:13:46;;;;;;;10.52;5.90;;;;;;;;;;10047287;29;20059;-84
2022/12/04 17:18:50;;;;;;;13.82;6.55;;;;;;;;;;10047208;29;20049;-82
2022/12/04 17:23:53;;;;;;;8.73;4.95;;;;;;;;;;10032387;29;20059;-82
2022/12/04 17:28:58;;;;;;;8.88;4.90;;;;;;;;;;10055688;29;20060;-83
2022/12/04 17:34:01;;;;;;;7.22;4.70;;;;;;;;;;10033351;29;20050;-82
2022/12/04 17:39:06;;;;;;;9.77;4.85;;;;;;;;;;10050773;29;20050;-82
2022/12/04 17:44:11;;;;;;;9.05;4.72;;;;;;;;;;10064553;29;20100;-82
2022/12/04 17:49:15;;;;;;;8.48;5.10;;;;;;;;;;10049461;29;20149;-82
2022/12/04 17:54:18;;;;;;;9.15;4.57;;;;;;;;;;10053044;29;20104;-82
2022/12/04 17:59:23;;;;;;;8.27;4.55;;;;;;;;;;10048224;29;20057;-83
2022/12/04 18:04:26;;;;;;;8.13;4.45;;;;;;;;;;10058283;29;20050;-83
2022/12/04 18:09:31;;;;;;;8.40;4.63;;;;;;;;;;10035455;29;20042;-82
2022/12/04 18:14:37;;;;;;;12.88;5.60;;;;;;;;;;10068410;29;20060;-83
2022/12/04 18:19:40;;;;;;;9.20;4.80;;;;;;;;;;10056295;29;20056;-83
2022/12/04 18:24:44;;;;;;;9.57;4.82;;;;;;;;;;10082631;29;20068;-83
2022/12/04 18:29:49;;;;;;;8.82;5.07;;;;;;;;;;10059413;29;20041;-84
2022/12/04 18:34:52;;;;;;;11.30;6.78;;;;;;;;;;10040150;29;20144;-82
2022/12/04 18:39:56;;;;;;;8.18;5.15;;;;;;;;;;10042869;29;20390;-83
2022/12/04 18:45:02;;;;;;;9.20;5.18;;;;;;;;;;10056836;29;20056;-82
2022/12/04 18:50:07;;;;;;;10.23;4.63;;;;;;;;;;10055842;29;20050;-82
2022/12/04 18:55:10;;;;;;;8.55;4.15;;;;;;;;;;10059507;29;20425;-82
2022/12/04 19:00:15;;;;;;;8.32;4.43;;;;;;;;;;10058922;29;20042;-82
2022/12/04 19:05:19;;;;;;;7.70;4.13;;;;;;;;;;10061181;29;20057;-83
2022/12/04 19:10:23;;;;;;;7.20;4.35;;;;;;;;;;10056545;29;20068;-82
2022/12/04 19:15:28;;;;;;;6.22;4.00;;;;;;;;;;10056961;29;20092;-82
2022/12/04 19:20:31;;;;;;;6.28;3.75;;;;;;;;;;10045120;29;20059;-83
2022/12/04 19:25:35;;;;;;;8.93;4.40;;;;;;;;;;10064641;29;20065;-82
2022/12/04 19:30:40;;;;;;;5.93;3.42;;;;;;;;;;10070365;29;20049;-83
2022/12/04 19:35:43;;;;;;;4.38;2.88;;;;;;;;;;10191018;23;20065;-84
2022/12/04 19:40:47;;;;;;;5.75;3.60;;;;;;;;;;10058096;29;20049;-84
2022/12/04 19:45:52;;;;;;;5.55;3.10;;;;;;;;;;10059763;29;20054;-86
2022/12/04 19:51:05;;;;;;;5.28;3.25;;;;;;;;;;10044811;29;20053;-84
2022/12/04 19:56:14;;;;;;;5.47;3.13;;;;;;;;;;10060197;29;20087;-84
2022/12/04 20:01:23;;;;;;;9.18;4.65;;;;;;;;;;10047681;29;20042;-87
2022/12/04 20:06:29;;;;;;;6.45;4.00;;;;;;;;;;10072436;29;20272;-84
2022/12/04 20:11:33;;;;;;;6.50;4.05;;;;;;;;;;10062273;29;20376;-84
2022/12/04 20:16:39;;;;;;;4.38;2.95;;;;;;;;;;10086174;29;20053;-86
2022/12/04 20:21:43;;;;;;;5.53;3.53;;;;;;;;;;10078403;29;20063;-84
2022/12/04 20:26:47;;;;;;;5.15;3.30;;;;;;;;;;10053979;29;20061;-84
2022/12/04 20:31:52;;;;;;;6.13;3.45;;;;;;;;;;10075757;29;20090;-85
2022/12/04 20:36:56;;;;;;;5.82;3.17;;;;;;;;;;10081789;29;20061;-85
2022/12/04 20:42:00;;;;;;;5.68;3.15;;;;;;;;;;10078513;29;20053;-85
2022/12/04 20:47:05;;;;;;;4.38;2.90;;;;;;;;;;10060497;29;20145;-86
2022/12/04 20:52:10;;;;;;;4.88;3.40;;;;;;;;;;10060792;29;20056;-84
2022/12/04 20:57:13;;;;;;;5.93;3.30;;;;;;;;;;10071645;29;20048;-85
2022/12/04 21:02:18;;;;;;;5.75;3.55;;;;;;;;;;10056591;29;20050;-83
2022/12/04 21:07:21;;;;;;;8.68;5.65;;;;;;;;;;10052443;29;20049;-82
2022/12/04 21:17:49;;;;;;;6.18;3.72;;;;;;;;;;10051115;29;20060;-83
2022/12/04 21:22:52;;;;;;;7.72;3.95;;;;;;;;;;10052791;29;20049;-83
2022/12/04 21:27:56;;;;;;;6.45;4.07;;;;;;;;;;10045503;29;20517;-83
2022/12/04 21:33:01;;;;;;;7.43;4.32;;;;;;;;;;10058793;29;20057;-83
2022/12/04 21:38:04;;;;;;;7.97;4.30;;;;;;;;;;10037696;29;20057;-83
2022/12/04 21:43:08;;;;;;;8.35;4.85;;;;;;;;;;10045990;29;20057;-83
2022/12/04 21:48:13;;;;;;;7.10;3.92;;;;;;;;;;10058966;29;20437;-83
2022/12/04 21:53:16;;;;;;;6.18;3.72;;;;;;;;;;10046671;29;20076;-83
2022/12/04 21:58:21;;;;;;;6.63;3.70;;;;;;;;;;10041967;29;20257;-82
2022/12/04 22:03:26;;;;;;;7.40;3.88;;;;;;;;;;10053000;29;20053;-83
2022/12/04 22:08:30;;;;;;;6.15;3.40;;;;;;;;;;10058988;29;20144;-82
2022/12/04 22:13:33;;;;;;;6.22;4.10;;;;;;;;;;10052370;29;20050;-83
2022/12/04 22:18:39;;;;;;;6.25;3.70;;;;;;;;;;10051811;29;20053;-84
2022/12/04 22:23:42;;;;;;;6.60;4.05;;;;;;;;;;10060132;29;20042;-83
2022/12/04 22:28:46;;;;;;;7.57;4.18;;;;;;;;;;10054584;29;20054;-84
2022/12/04 22:33:53;;;;;;;6.60;4.30;;;;;;;;;;10054179;29;20144;-83
2022/12/04 22:38:57;;;;;;;8.05;4.70;;;;;;;;;;10039044;29;20055;-82
2022/12/04 22:44:10;;;;;;;8.52;4.32;;;;;;;;;;10049531;29;20050;-84
2022/12/04 22:49:15;;;;;;;8.18;4.55;;;;;;;;;;10054666;29;20148;-84
2022/12/04 22:54:19;;;;;;;8.13;4.70;;;;;;;;;;10060481;29;20049;-84
2022/12/04 22:59:22;;;;;;;7.15;4.18;;;;;;;;;;10081874;29;20068;-84
2022/12/04 23:04:31;;;;;;;7.28;3.67;;;;;;;;;;10063687;29;20421;-83
2022/12/04 23:09:35;;;;;;;5.20;3.58;;;;;;;;;;10069247;29;20429;-86
2022/12/04 23:14:39;;;;;;;6.50;3.38;;;;;;;;;;10057241;29;20308;-87
2022/12/04 23:19:45;;;;;;;5.97;3.78;;;;;;;;;;10052507;29;20231;-87
2022/12/04 23:24:49;;;;;;;5.97;4.00;;;;;;;;;;10045627;29;20533;-86
2022/12/04 23:29:53;;;;;;;6.75;4.05;;;;;;;;;;10060623;29;20057;-87
2022/12/04 23:34:57;;;;;;;6.35;4.03;;;;;;;;;;10079282;29;20103;-87
2022/12/04 23:40:01;;;;;;;6.63;4.15;;;;;;;;;;10048637;29;20377;-86
2022/12/04 23:45:06;;;;;;;5.60;3.70;;;;;;;;;;10069298;29;20049;-87
2022/12/04 23:50:11;;;;;;;6.68;4.22;;;;;;;;;;10061125;29;20053;-87
2022/12/04 23:55:15;;;;;;;6.60;3.83;;;;;;;;;;10053357;29;20492;-86
